createdAt,value
2018-07-04T00:00:05.465Z,39.4
2018-07-04T00:02:05.156Z,39.4
2018-07-04T00:04:05.833Z,39.4
2018-07-04T00:06:05.058Z,39.5
2018-07-04T00:08:05.810Z,39.5
2018-07-04T00:10:10.616Z,39.6
2018-07-04T00:12:05.822Z,39.6
2018-07-04T00:14:05.567Z,39.5
2018-07-04T00:16:05.328Z,39.6
2018-07-04T00:18:05.212Z,39.5
2018-07-04T00:20:08.413Z,39.7
2018-07-04T00:22:05.280Z,39.5
2018-07-04T00:24:06.001Z,39.5
2018-07-04T00:26:07.797Z,39.5
2018-07-04T00:28:05.069Z,39.4
2018-07-04T00:30:05.771Z,39.5
2018-07-04T00:32:05.457Z,39.4
2018-07-04T00:34:05.129Z,39.4
2018-07-04T00:36:05.827Z,39.4
2018-07-04T00:38:05.551Z,39.3
2018-07-04T00:40:05.798Z,39.1
2018-07-04T00:42:10.649Z,39.2
2018-07-04T00:44:05.356Z,39.1
2018-07-04T00:46:07.583Z,39.2
2018-07-04T00:48:10.315Z,39.3
2018-07-04T00:50:05.591Z,39.3
2018-07-04T00:52:07.818Z,39.2
2018-07-04T00:54:08.095Z,39
2018-07-04T00:56:05.831Z,39.1
2018-07-04T00:58:05.557Z,39.3
2018-07-04T01:00:05.330Z,39
2018-07-04T01:02:05.098Z,39.1
2018-07-04T01:04:05.774Z,39.1
2018-07-04T01:06:05.443Z,39.1
2018-07-04T01:08:05.155Z,39.1
2018-07-04T01:10:05.354Z,39.1
2018-07-04T01:12:05.065Z,39
2018-07-04T01:14:05.755Z,39
2018-07-04T01:16:05.424Z,39
2018-07-04T01:18:06.011Z,39.1
2018-07-04T01:20:05.766Z,39.2
2018-07-04T01:22:05.503Z,39
2018-07-04T01:24:05.156Z,39.2
2018-07-04T01:26:05.822Z,39.1
2018-07-04T01:28:05.528Z,39.1
2018-07-04T01:30:05.251Z,39.2
2018-07-04T01:32:05.937Z,39.2
2018-07-04T01:34:05.702Z,39.2
2018-07-04T01:36:05.396Z,39.1
2018-07-04T01:38:05.057Z,39.3
2018-07-04T01:40:08.263Z,39.2
2018-07-04T01:42:08.462Z,39.4
2018-07-04T01:44:05.176Z,39.2
2018-07-04T01:46:05.841Z,39.3
2018-07-04T01:48:05.037Z,39.3
2018-07-04T01:50:05.762Z,39.3
2018-07-04T01:52:05.407Z,39.3
2018-07-04T01:54:15.192Z,39
2018-07-04T01:56:05.890Z,39.1
2018-07-04T01:58:05.694Z,39.4
2018-07-04T02:00:07.879Z,39.4
2018-07-04T02:02:05.669Z,39.3
2018-07-04T02:04:05.881Z,39.3
2018-07-04T02:06:08.167Z,39.2
2018-07-04T02:08:05.370Z,39.2
2018-07-04T02:10:05.049Z,39.1
2018-07-04T02:12:05.760Z,38.9
2018-07-04T02:14:05.505Z,38.9
2018-07-04T02:16:05.723Z,38.9
2018-07-04T02:18:08.406Z,38.9
2018-07-04T02:20:05.064Z,38.8
2018-07-04T02:22:05.771Z,38.8
2018-07-04T02:24:05.529Z,39
2018-07-04T02:26:05.208Z,39.1
2018-07-04T02:28:05.941Z,39
2018-07-04T02:30:05.640Z,38.8
2018-07-04T02:32:05.330Z,38.8
2018-07-04T02:34:08.498Z,39
2018-07-04T02:36:05.193Z,39
2018-07-04T02:38:05.377Z,39
2018-07-04T02:40:05.094Z,39
2018-07-04T02:42:05.882Z,39
2018-07-04T02:44:08.116Z,39.1
2018-07-04T02:46:05.502Z,39.1
2018-07-04T02:48:07.874Z,39.1
2018-07-04T02:50:13.131Z,39.2
2018-07-04T02:52:05.402Z,39.2
2018-07-04T02:54:07.681Z,39.2
2018-07-04T02:56:05.376Z,39.2
2018-07-04T02:58:05.083Z,39.2
2018-07-04T03:00:05.955Z,39.2
2018-07-04T03:02:08.220Z,39
2018-07-04T03:04:07.991Z,39.1
2018-07-04T03:06:05.673Z,39.1
2018-07-04T03:08:10.421Z,39.2
2018-07-04T03:10:05.180Z,39.2
2018-07-04T03:12:10.472Z,39.1
2018-07-04T03:14:07.718Z,39.2
2018-07-04T03:16:07.921Z,39.1
2018-07-04T03:18:05.861Z,39.3
2018-07-04T03:20:08.139Z,39.2
2018-07-04T03:22:05.822Z,39.2
2018-07-04T03:24:05.527Z,39.3
2018-07-04T03:26:05.193Z,39.2
2018-07-04T03:28:05.902Z,39.3
2018-07-04T03:30:05.687Z,39.2
2018-07-04T03:32:05.413Z,39.2
2018-07-04T03:34:07.709Z,39.1
2018-07-04T03:36:07.974Z,39.1
2018-07-04T03:38:05.673Z,39.1
2018-07-04T03:40:05.444Z,39
2018-07-04T03:42:10.278Z,39.1
2018-07-04T03:44:05.015Z,39
2018-07-04T03:46:05.763Z,39.1
2018-07-04T03:48:05.416Z,39.1
2018-07-04T03:50:05.104Z,39.1
2018-07-04T03:52:05.833Z,39.1
2018-07-04T03:54:08.020Z,39.1
2018-07-04T03:56:08.258Z,39.1
2018-07-04T03:58:08.663Z,39.2
2018-07-04T04:00:08.088Z,39.3
2018-07-04T04:02:10.892Z,39.2
2018-07-04T04:04:05.110Z,39.2
2018-07-04T04:06:06.237Z,39.1
2018-07-04T04:08:05.733Z,39.1
2018-07-04T04:10:05.427Z,39.1
2018-07-04T04:12:05.100Z,39.1
2018-07-04T04:14:08.330Z,38.8
2018-07-04T04:16:05.066Z,38.8
2018-07-04T04:18:05.697Z,38.8
2018-07-04T04:20:18.015Z,38.5
2018-07-04T04:22:05.709Z,38.6
2018-07-04T04:24:07.930Z,38.7
2018-07-04T04:26:05.617Z,38.7
2018-07-04T04:28:05.550Z,38.5
2018-07-04T04:30:13.982Z,38.6
2018-07-04T04:32:10.313Z,38.8
2018-07-04T04:34:11.052Z,38.7
2018-07-04T04:36:13.437Z,38.7
2018-07-04T04:38:05.727Z,38.7
2018-07-04T04:40:05.495Z,38.6
2018-07-04T04:42:05.203Z,38.6
2018-07-04T04:44:05.909Z,38.6
2018-07-04T04:46:05.635Z,38.5
2018-07-04T04:48:05.368Z,38.5
2018-07-04T04:50:08.103Z,38.5
2018-07-04T04:52:08.469Z,38.7
2018-07-04T04:54:05.250Z,38.7
2018-07-04T04:56:08.460Z,38.6
2018-07-04T04:58:05.718Z,38.6
2018-07-04T05:00:10.466Z,38.7
2018-07-04T05:02:05.171Z,38.7
2018-07-04T05:04:10.946Z,38.6
2018-07-04T05:06:05.657Z,38.6
2018-07-04T05:08:05.375Z,38.6
2018-07-04T05:10:05.570Z,38.5
2018-07-04T05:12:05.250Z,38.4
2018-07-04T05:14:05.963Z,38.4
2018-07-04T05:16:08.227Z,38.4
2018-07-04T05:18:07.657Z,38.4
2018-07-04T05:20:07.859Z,38.3
2018-07-04T05:22:08.060Z,38.4
2018-07-04T05:24:05.246Z,38.3
2018-07-04T05:26:05.956Z,38.4
2018-07-04T05:28:08.292Z,38.6
2018-07-04T05:30:05.038Z,38.4
2018-07-04T05:32:05.229Z,38.7
2018-07-04T05:34:05.933Z,38.5
2018-07-04T05:36:05.785Z,38.7
2018-07-04T05:38:05.711Z,38.8
2018-07-04T05:40:08.501Z,38.8
2018-07-04T05:42:05.253Z,38.8
2018-07-04T05:44:04.994Z,39
2018-07-04T05:46:05.284Z,39
2018-07-04T05:48:05.586Z,39
2018-07-04T05:50:05.241Z,39
2018-07-04T05:52:05.455Z,39.1
2018-07-04T05:54:05.119Z,39
2018-07-04T05:56:05.890Z,39.1
2018-07-04T05:58:05.755Z,39.2
2018-07-04T06:00:05.697Z,38.9
2018-07-04T06:02:05.740Z,39.1
2018-07-04T06:04:05.533Z,39.3
2018-07-04T06:06:07.792Z,39.3
2018-07-04T06:08:08.022Z,39.4
2018-07-04T06:10:10.796Z,39.5
2018-07-04T06:12:05.467Z,39.4
2018-07-04T06:14:05.644Z,39.6
2018-07-04T06:16:10.542Z,39.6
2018-07-04T06:18:05.422Z,39.6
2018-07-04T06:20:05.113Z,39.8
2018-07-04T06:22:05.787Z,39.8
2018-07-04T06:24:05.543Z,39.9
2018-07-04T06:26:05.852Z,39.9
2018-07-04T06:28:05.574Z,39.9
2018-07-04T06:30:05.761Z,39.7
2018-07-04T06:32:05.452Z,39.8
2018-07-04T06:34:05.150Z,39.6
2018-07-04T06:36:07.960Z,39.6
2018-07-04T06:38:05.610Z,39.6
2018-07-04T06:40:05.403Z,39.2
2018-07-04T06:42:05.123Z,39.3
2018-07-04T06:44:05.885Z,38.5
2018-07-04T06:46:05.656Z,39
2018-07-04T06:48:05.528Z,39
2018-07-04T06:50:05.267Z,38.8
2018-07-04T06:52:06.010Z,38.9
2018-07-04T06:54:10.912Z,38.8
2018-07-04T06:56:05.811Z,38.8
2018-07-04T06:58:05.540Z,38.8
2018-07-04T07:00:05.197Z,38.8
2018-07-04T07:02:08.373Z,38.5
2018-07-04T07:04:05.025Z,38.7
2018-07-04T07:06:07.730Z,38.7
2018-07-04T07:08:05.561Z,38.7
2018-07-04T07:10:05.874Z,39
2018-07-04T07:12:05.115Z,39.3
2018-07-04T07:14:05.896Z,39.1
2018-07-04T07:16:07.692Z,39.4
2018-07-04T07:18:05.136Z,39.5
2018-07-04T07:20:05.791Z,39.7
2018-07-04T07:22:08.042Z,39.9
2018-07-04T07:24:05.728Z,39.9
2018-07-04T07:26:05.405Z,40.1
2018-07-04T07:28:05.100Z,40.5
2018-07-04T07:30:08.283Z,40.6
2018-07-04T07:32:11.233Z,40.4
2018-07-04T07:34:06.118Z,40.5
2018-07-04T07:36:05.649Z,40.6
2018-07-04T07:38:05.387Z,40.8
2018-07-04T07:40:07.612Z,41.3
2018-07-04T07:42:06.133Z,41
2018-07-04T07:44:07.155Z,41.4
2018-07-04T07:46:05.066Z,41.3
2018-07-04T07:48:05.734Z,41.4
2018-07-04T07:50:05.510Z,41.4
2018-07-04T07:52:05.181Z,41.7
2018-07-04T07:54:05.991Z,41.8
2018-07-04T07:56:05.430Z,41.5
2018-07-04T07:58:07.734Z,41.8
2018-07-04T08:00:05.437Z,41.7
2018-07-04T08:02:10.226Z,42.3
2018-07-04T08:04:07.982Z,42.3
2018-07-04T08:06:05.852Z,42.1
2018-07-04T08:08:05.522Z,42.3
2018-07-04T08:10:05.236Z,42.3
2018-07-04T08:12:05.936Z,42.3
2018-07-04T08:14:13.300Z,42.1
2018-07-04T08:16:06.058Z,42.3
2018-07-04T08:18:05.931Z,42.3
2018-07-04T08:20:05.592Z,42.1
2018-07-04T08:22:05.283Z,42.3
2018-07-04T08:24:08.499Z,42.3
2018-07-04T08:26:12.784Z,42.3
2018-07-04T08:28:05.686Z,42.3
2018-07-04T08:30:05.318Z,42.3
2018-07-04T08:32:13.548Z,42.3
2018-07-04T08:34:05.389Z,42.3
2018-07-04T08:36:07.593Z,42.4
2018-07-04T08:38:05.276Z,42.3
2018-07-04T08:40:10.559Z,42.7
2018-07-04T08:42:05.266Z,42.7
2018-07-04T08:44:05.920Z,42.9
2018-07-04T08:46:08.129Z,43.1
2018-07-04T08:48:05.785Z,43.1
2018-07-04T08:50:07.627Z,43
2018-07-04T08:52:05.326Z,43.1
2018-07-04T08:54:05.056Z,43
2018-07-04T08:56:05.717Z,43.1
2018-07-04T08:58:05.476Z,43.5
2018-07-04T09:00:05.717Z,43.4
2018-07-04T09:02:05.085Z,43.4
2018-07-04T09:04:05.371Z,43.4
2018-07-04T09:06:05.189Z,43.5
2018-07-04T09:08:05.897Z,43.5
2018-07-04T09:10:05.713Z,43.5
2018-07-04T09:12:05.410Z,43.5
2018-07-04T09:14:10.145Z,43.5
2018-07-04T09:16:09.335Z,43.8
2018-07-04T09:18:05.213Z,43.8
2018-07-04T09:20:06.114Z,43.9
2018-07-04T09:22:08.389Z,43.9
2018-07-04T09:24:05.084Z,43.9
2018-07-04T09:26:05.781Z,43.8
2018-07-04T09:28:05.808Z,44.2
2018-07-04T09:30:05.495Z,44.1
2018-07-04T09:32:07.695Z,44.3
2018-07-04T09:34:08.397Z,44.3
2018-07-04T09:36:05.638Z,44.3
2018-07-04T09:38:10.428Z,44.3
2018-07-04T09:40:05.787Z,44.3
2018-07-04T09:42:07.988Z,44.4
2018-07-04T09:44:08.404Z,44.3
2018-07-04T09:46:07.928Z,44.6
2018-07-04T09:48:05.873Z,44.5
2018-07-04T09:50:05.655Z,44.7
2018-07-04T09:52:05.370Z,44.7
2018-07-04T09:54:05.104Z,44.7
2018-07-04T09:56:05.826Z,44.7
2018-07-04T09:58:05.517Z,44.6
2018-07-04T10:00:05.234Z,44.8
2018-07-04T10:02:05.486Z,44.8
2018-07-04T10:04:05.875Z,44.8
2018-07-04T10:06:05.655Z,45
2018-07-04T10:08:05.894Z,44.9
2018-07-04T10:10:05.127Z,44.9
2018-07-04T10:12:05.769Z,45
2018-07-04T10:14:05.481Z,45
2018-07-04T10:16:05.139Z,45.1
2018-07-04T10:18:05.002Z,45.1
2018-07-04T10:20:05.933Z,45
2018-07-04T10:22:05.673Z,45
2018-07-04T10:24:05.990Z,45.2
2018-07-04T10:26:08.429Z,45.5
2018-07-04T10:28:15.244Z,45.2
2018-07-04T10:30:05.874Z,45.2
2018-07-04T10:32:05.545Z,45.4
2018-07-04T10:34:05.326Z,45.4
2018-07-04T10:36:05.036Z,45.3
2018-07-04T10:38:05.770Z,45.4
2018-07-04T10:40:08.502Z,45.4
2018-07-04T10:42:05.327Z,45.4
2018-07-04T10:44:05.090Z,45.3
2018-07-04T10:46:05.786Z,45.5
2018-07-04T10:48:08.032Z,45.4
2018-07-04T10:50:10.326Z,45.6
2018-07-04T10:52:06.034Z,45.6
2018-07-04T10:54:05.910Z,45.7
2018-07-04T10:56:05.110Z,45.6
2018-07-04T10:58:05.763Z,45.6
2018-07-04T11:00:05.945Z,45.6
2018-07-04T11:02:05.771Z,45.5
2018-07-04T11:04:08.053Z,45.7
2018-07-04T11:06:05.727Z,45.7
2018-07-04T11:08:08.512Z,45.6
2018-07-04T11:10:05.737Z,45.7
2018-07-04T11:12:07.899Z,45.7
2018-07-04T11:14:10.673Z,45.6
2018-07-04T11:16:05.438Z,45.6
2018-07-04T11:18:10.347Z,45.6
2018-07-04T11:20:07.607Z,45.6
2018-07-04T11:22:05.809Z,45.6
2018-07-04T11:24:05.485Z,45.8
2018-07-04T11:26:05.238Z,45.9
2018-07-04T11:28:05.946Z,45.9
2018-07-04T11:30:08.133Z,46.1
2018-07-04T11:32:08.356Z,46
2018-07-04T11:34:07.569Z,46
2018-07-04T11:36:07.837Z,46.1
2018-07-04T11:38:13.096Z,46
2018-07-04T11:40:05.823Z,46
2018-07-04T11:42:05.632Z,46
2018-07-04T11:44:07.840Z,46
2018-07-04T11:46:05.536Z,46
2018-07-04T11:48:05.231Z,46
2018-07-04T11:50:05.426Z,46
2018-07-04T11:52:07.691Z,46.1
2018-07-04T11:54:05.384Z,46.1
2018-07-04T11:56:05.117Z,46.2
2018-07-04T11:58:05.810Z,46.1
2018-07-04T12:00:08.026Z,46
2018-07-04T12:02:14.281Z,46
2018-07-04T12:04:06.027Z,46
2018-07-04T12:06:05.782Z,46
2018-07-04T12:08:10.543Z,46.1
2018-07-04T12:10:05.245Z,46.1
2018-07-04T12:12:08.521Z,46.3
2018-07-04T12:14:12.828Z,46.2
2018-07-04T12:16:05.524Z,46.2
2018-07-04T12:18:07.928Z,46.2
2018-07-04T12:20:08.146Z,46.2
2018-07-04T12:22:05.884Z,46.2
2018-07-04T12:24:05.642Z,46.1
2018-07-04T12:26:05.414Z,46.2
2018-07-04T12:28:08.227Z,46.3
2018-07-04T12:30:05.903Z,46.3
2018-07-04T12:32:05.673Z,46.2
2018-07-04T12:34:11.242Z,46.3
2018-07-04T12:36:05.899Z,46.3
2018-07-04T12:38:05.686Z,46.6
2018-07-04T12:40:10.625Z,46.7
2018-07-04T12:42:05.403Z,46.7
2018-07-04T12:44:07.661Z,46.7
2018-07-04T12:46:05.337Z,46.8
2018-07-04T12:48:06.030Z,46.7
2018-07-04T12:50:07.786Z,46.6
2018-07-04T12:52:05.488Z,46.6
2018-07-04T12:54:15.469Z,47
2018-07-04T12:56:05.735Z,47
2018-07-04T12:58:10.505Z,46.8
2018-07-04T13:00:07.738Z,47
2018-07-04T13:02:05.543Z,47
2018-07-04T13:04:05.337Z,46.9
2018-07-04T13:06:06.039Z,46.9
2018-07-04T13:08:09.322Z,47
2018-07-04T13:10:05.660Z,47
2018-07-04T13:12:08.413Z,47.3
2018-07-04T13:14:07.659Z,47.4
2018-07-04T13:16:05.416Z,47.3
2018-07-04T13:18:05.396Z,47.3
2018-07-04T13:20:05.104Z,47.2
2018-07-04T13:22:05.808Z,47.2
2018-07-04T13:24:05.475Z,47.3
2018-07-04T13:26:05.747Z,47.1
2018-07-04T13:28:05.146Z,47.1
2018-07-04T13:30:06.121Z,47.2
2018-07-04T13:32:11.014Z,47.2
2018-07-04T13:34:13.279Z,47.2
2018-07-04T13:36:05.921Z,47.2
2018-07-04T13:38:05.691Z,47.4
2018-07-04T13:40:05.383Z,47.3
2018-07-04T13:42:06.113Z,47.3
2018-07-04T13:44:08.346Z,47.3
2018-07-04T13:46:10.237Z,47.6
2018-07-04T13:48:05.926Z,47.5
2018-07-04T13:50:05.830Z,47.6
2018-07-04T13:52:05.499Z,47.6
2018-07-04T13:54:05.189Z,47.7
2018-07-04T13:56:05.454Z,47.9
2018-07-04T13:58:05.771Z,47.8
2018-07-04T14:00:05.012Z,47.8
2018-07-04T14:02:07.739Z,47.8
2018-07-04T14:04:05.525Z,47.8
2018-07-04T14:06:05.985Z,47.8
2018-07-04T14:08:05.711Z,47.7
2018-07-04T14:10:05.513Z,47.8
2018-07-04T14:12:10.393Z,47.7
2018-07-04T14:14:07.558Z,47.9
2018-07-04T14:16:05.233Z,47.7
2018-07-04T14:18:05.129Z,47.7
2018-07-04T14:20:08.404Z,47.8
2018-07-04T14:22:05.663Z,47.6
2018-07-04T14:24:05.332Z,47.8
2018-07-04T14:26:06.000Z,47.6
2018-07-04T14:28:05.692Z,47.6
2018-07-04T14:30:08.146Z,47.6
2018-07-04T14:32:05.821Z,47.6
2018-07-04T14:34:05.552Z,47.6
2018-07-04T14:36:10.387Z,47.7
2018-07-04T14:38:05.108Z,47.7
2018-07-04T14:40:05.813Z,47.7
2018-07-04T14:42:05.523Z,47.7
2018-07-04T14:44:05.184Z,47.6
2018-07-04T14:46:08.411Z,47.6
2018-07-04T14:48:07.710Z,47.6
2018-07-04T14:50:05.395Z,47.6
2018-07-04T14:52:08.687Z,47.8
2018-07-04T14:54:05.792Z,47.8
2018-07-04T14:56:05.706Z,48
2018-07-04T14:58:08.149Z,48.1
2018-07-04T15:00:05.325Z,48.1
2018-07-04T15:02:05.540Z,48.2
2018-07-04T15:04:05.456Z,48.1
2018-07-04T15:06:05.137Z,48.1
2018-07-04T15:08:05.860Z,48
2018-07-04T15:10:05.617Z,48.1
2018-07-04T15:12:05.390Z,48
2018-07-04T15:14:06.082Z,48
2018-07-04T15:16:05.814Z,47.9
2018-07-04T15:18:08.230Z,48.1
2018-07-04T15:20:10.962Z,48
2018-07-04T15:22:05.684Z,48
2018-07-04T15:24:05.688Z,48.1
2018-07-04T15:26:05.439Z,47.9
2018-07-04T15:28:06.304Z,47.8
2018-07-04T15:30:08.695Z,47.8
2018-07-04T15:32:05.409Z,47.8
2018-07-04T15:34:07.172Z,47.8
2018-07-04T15:36:07.898Z,47.7
2018-07-04T15:38:06.258Z,47.7
2018-07-04T15:40:05.630Z,47.6
2018-07-04T15:42:05.311Z,47.7
2018-07-04T15:44:06.006Z,47.6
2018-07-04T15:46:08.431Z,47.6
2018-07-04T15:48:11.123Z,47.6
2018-07-04T15:50:05.416Z,47.6
2018-07-04T15:52:06.191Z,47.6
2018-07-04T15:54:05.998Z,47.6
2018-07-04T15:56:08.278Z,47.6
2018-07-04T15:58:06.012Z,47.6
2018-07-04T16:00:05.691Z,47.4
2018-07-04T16:02:05.521Z,47.4
2018-07-04T16:04:06.263Z,47.4
2018-07-04T16:06:05.926Z,47.3
2018-07-04T16:08:08.142Z,47.3
2018-07-04T16:10:10.923Z,47.3
2018-07-04T16:12:05.579Z,47.5
2018-07-04T16:14:05.194Z,47.3
2018-07-04T16:16:05.597Z,47.3
2018-07-04T16:18:05.496Z,47.2
2018-07-04T16:20:07.697Z,47
2018-07-04T16:22:05.435Z,47
2018-07-04T16:24:06.112Z,46.9
2018-07-04T16:26:05.808Z,46.8
2018-07-04T16:28:05.500Z,46.8
2018-07-04T16:30:05.231Z,46.8
2018-07-04T16:32:05.924Z,46.9
2018-07-04T16:34:05.690Z,46.8
2018-07-04T16:36:05.322Z,46.8
2018-07-04T16:38:05.007Z,46.7
2018-07-04T16:40:05.304Z,46.7
2018-07-04T16:42:10.051Z,46.5
2018-07-04T16:44:05.806Z,46.5
2018-07-04T16:46:05.609Z,46.5
2018-07-04T16:48:07.816Z,46.5
2018-07-04T16:50:08.012Z,46.6
2018-07-04T16:52:05.698Z,46.6
2018-07-04T16:54:05.902Z,46.3
2018-07-04T16:56:05.623Z,46.5
2018-07-04T16:58:05.289Z,46.5
2018-07-04T17:00:06.075Z,46.4
2018-07-04T17:02:05.261Z,46.5
2018-07-04T17:04:08.603Z,46.4
2018-07-04T17:06:05.371Z,46.4
2018-07-04T17:08:05.063Z,46.4
2018-07-04T17:10:06.089Z,46.4
2018-07-04T17:12:08.339Z,46.5
2018-07-04T17:14:05.065Z,46.5
2018-07-04T17:16:05.844Z,46.5
2018-07-04T17:18:05.722Z,46.5
2018-07-04T17:20:05.348Z,46.4
2018-07-04T17:22:07.644Z,46.4
2018-07-04T17:24:10.907Z,46.4
2018-07-04T17:26:05.820Z,46.4
2018-07-04T17:28:06.160Z,46.4
2018-07-04T17:30:05.859Z,46.5
2018-07-04T17:32:05.118Z,46.5
2018-07-04T17:34:08.342Z,46.4
2018-07-04T17:36:05.573Z,46.4
2018-07-04T17:38:05.847Z,46.4
2018-07-04T17:40:05.682Z,46.4
2018-07-04T17:42:05.399Z,46.4
2018-07-04T17:44:05.458Z,46.4
2018-07-04T17:46:05.704Z,46.4
2018-07-04T17:48:07.921Z,46.4
2018-07-04T17:50:05.620Z,46.4
2018-07-04T17:52:05.547Z,46.3
2018-07-04T17:54:05.774Z,46.3
2018-07-04T17:56:05.486Z,46.3
2018-07-04T17:58:07.915Z,46.3
2018-07-04T18:00:05.615Z,46.3
2018-07-04T18:02:05.313Z,46.5
2018-07-04T18:04:05.014Z,46.5
2018-07-04T18:06:06.804Z,46.4
2018-07-04T18:08:10.517Z,46.2
2018-07-04T18:10:07.850Z,46.3
2018-07-04T18:12:05.681Z,46.3
2018-07-04T18:14:05.604Z,46.3
2018-07-04T18:16:05.924Z,46.2
2018-07-04T18:18:13.788Z,46.2
2018-07-04T18:20:05.718Z,46.2
2018-07-04T18:22:10.517Z,46.2
2018-07-04T18:24:05.204Z,46.2
2018-07-04T18:26:18.641Z,46.2
2018-07-04T18:28:08.388Z,46.1
2018-07-04T18:30:05.185Z,46.1
2018-07-04T18:32:07.390Z,46
2018-07-04T18:34:05.456Z,46
2018-07-04T18:36:05.426Z,46.1
2018-07-04T18:38:05.126Z,46.1
2018-07-04T18:40:05.817Z,46.1
2018-07-04T18:42:07.791Z,46.3
2018-07-04T18:44:08.286Z,46.1
2018-07-04T18:46:08.545Z,46.2
2018-07-04T18:48:05.391Z,46.1
2018-07-04T18:50:05.203Z,46.1
2018-07-04T18:52:05.374Z,46.1
2018-07-04T18:54:08.471Z,46.2
2018-07-04T18:56:07.703Z,46.3
2018-07-04T18:58:10.487Z,46.1
2018-07-04T19:00:05.312Z,46
2018-07-04T19:02:08.599Z,46
2018-07-04T19:04:07.777Z,46.2
2018-07-04T19:06:05.632Z,46
2018-07-04T19:08:05.333Z,46.1
2018-07-04T19:10:08.089Z,46.2
2018-07-04T19:12:05.729Z,46.2
2018-07-04T19:14:08.031Z,46.2
2018-07-04T19:16:05.758Z,46.2
2018-07-04T19:18:08.212Z,46.2
2018-07-04T19:20:05.881Z,46.1
2018-07-04T19:22:05.590Z,46.1
2018-07-04T19:24:10.430Z,46.2
2018-07-04T19:26:07.691Z,46.2
2018-07-04T19:28:05.637Z,46.2
2018-07-04T19:30:05.363Z,46.1
2018-07-04T19:32:05.118Z,46.2
2018-07-04T19:34:10.868Z,46.3
2018-07-04T19:36:05.619Z,46.3
2018-07-04T19:38:07.818Z,46.3
2018-07-04T19:40:05.528Z,46.3
2018-07-04T19:42:05.302Z,46.3
2018-07-04T19:44:05.427Z,46.2
2018-07-04T19:46:07.660Z,46.3
2018-07-04T19:48:08.519Z,46.3
2018-07-04T19:50:05.456Z,46.4
2018-07-04T19:52:07.714Z,46.5
2018-07-04T19:54:05.360Z,46.5
2018-07-04T19:56:05.035Z,46.5
2018-07-04T19:58:05.692Z,46.6
2018-07-04T20:00:05.387Z,46.6
2018-07-04T20:02:05.123Z,46.6
2018-07-04T20:04:05.856Z,46.6
2018-07-04T20:06:05.277Z,46.6
2018-07-04T20:08:06.022Z,46.5
2018-07-04T20:10:07.923Z,46.5
2018-07-04T20:12:08.152Z,46.6
2018-07-04T20:14:06.040Z,46.6
2018-07-04T20:16:05.978Z,46.7
2018-07-04T20:18:05.953Z,46.7
2018-07-04T20:20:08.178Z,46.8
2018-07-04T20:22:10.903Z,46.7
2018-07-04T20:24:07.680Z,46.9
2018-07-04T20:26:05.333Z,46.9
2018-07-04T20:28:05.051Z,46.9
2018-07-04T20:30:05.708Z,46.9
2018-07-04T20:32:10.482Z,47.1
2018-07-04T20:34:05.138Z,47.1
2018-07-04T20:36:05.808Z,47
2018-07-04T20:38:05.072Z,47.1
2018-07-04T20:40:05.365Z,47.2
2018-07-04T20:42:05.059Z,47
2018-07-04T20:44:06.947Z,47.1
2018-07-04T20:46:05.616Z,47.2
2018-07-04T20:48:05.227Z,47.1
2018-07-04T20:50:05.467Z,47
2018-07-04T20:52:07.847Z,46.9
2018-07-04T20:54:05.586Z,46.9
2018-07-04T20:56:05.282Z,46.9
2018-07-04T20:58:06.034Z,46.9
2018-07-04T21:00:05.484Z,46.9
2018-07-04T21:02:07.714Z,47
2018-07-04T21:04:05.404Z,46.9
2018-07-04T21:06:05.133Z,46.9
2018-07-04T21:08:05.335Z,47
2018-07-04T21:10:05.263Z,47.1
2018-07-04T21:12:06.009Z,47
2018-07-04T21:14:05.794Z,47.2
2018-07-04T21:16:07.989Z,47.1
2018-07-04T21:18:07.902Z,47
2018-07-04T21:20:05.158Z,47
2018-07-04T21:22:06.097Z,47.2
2018-07-04T21:24:05.744Z,47.1
2018-07-04T21:26:05.378Z,47.2
2018-07-04T21:28:05.561Z,47
2018-07-04T21:30:05.367Z,47
2018-07-04T21:32:05.761Z,47
2018-07-04T21:34:06.099Z,47.1
2018-07-04T21:36:08.539Z,47.1
2018-07-04T21:38:05.312Z,47
2018-07-04T21:40:05.160Z,47.1
2018-07-04T21:42:07.981Z,47.1
2018-07-04T21:44:05.896Z,47.1
2018-07-04T21:46:05.769Z,47
2018-07-04T21:48:05.735Z,47
2018-07-04T21:50:05.463Z,46.9
2018-07-04T21:52:05.206Z,47
2018-07-04T21:54:05.903Z,47
2018-07-04T21:56:05.611Z,47.1
2018-07-04T21:58:05.470Z,47.1
2018-07-04T22:00:05.523Z,47.1
2018-07-04T22:02:05.247Z,47.1
2018-07-04T22:04:11.849Z,47.1
2018-07-04T22:06:05.518Z,47.1
2018-07-04T22:08:10.248Z,47.1
2018-07-04T22:10:08.725Z,47.1
2018-07-04T22:12:05.411Z,47.1
2018-07-04T22:14:07.615Z,47
2018-07-04T22:16:05.264Z,47
2018-07-04T22:18:05.097Z,47
2018-07-04T22:20:05.858Z,47
2018-07-04T22:22:05.563Z,46.9
2018-07-04T22:24:05.287Z,46.8
2018-07-04T22:26:06.060Z,46.8
2018-07-04T22:28:13.361Z,46.7
2018-07-04T22:30:06.438Z,46.8
2018-07-04T22:32:08.235Z,46.5
2018-07-04T22:34:08.008Z,46.6
2018-07-04T22:36:05.675Z,46.6
2018-07-04T22:38:05.295Z,46.5
2018-07-04T22:40:06.003Z,46.6
2018-07-04T22:42:05.701Z,46.8
2018-07-04T22:44:05.490Z,46.4
2018-07-04T22:46:07.753Z,46.5
2018-07-04T22:48:16.045Z,46.3
2018-07-04T22:50:05.767Z,46.3
2018-07-04T22:52:06.057Z,46.3
2018-07-04T22:54:05.780Z,46.5
2018-07-04T22:56:05.998Z,46.3
2018-07-04T22:58:05.199Z,46.3
2018-07-04T23:00:05.867Z,46.3
2018-07-04T23:02:05.615Z,46.2
2018-07-04T23:04:05.359Z,46
2018-07-04T23:06:07.609Z,46.1
2018-07-04T23:08:07.794Z,45.9
2018-07-04T23:10:05.494Z,45.9
2018-07-04T23:12:10.182Z,45.8
2018-07-04T23:14:10.890Z,46
2018-07-04T23:16:05.869Z,45.9
2018-07-04T23:18:05.074Z,45.8
2018-07-04T23:20:08.237Z,45.8
2018-07-04T23:22:05.930Z,45.8
2018-07-04T23:24:05.149Z,45.8
2018-07-04T23:26:05.865Z,45.8
2018-07-04T23:28:05.145Z,45.6
2018-07-04T23:30:10.866Z,45.6
2018-07-04T23:32:05.543Z,45.6
2018-07-04T23:34:05.291Z,45.8
2018-07-04T23:36:05.012Z,45.7
2018-07-04T23:38:05.743Z,45.6
2018-07-04T23:40:05.446Z,45.7
2018-07-04T23:42:05.091Z,45.6
2018-07-04T23:44:05.748Z,45.6
2018-07-04T23:46:05.480Z,45.5
2018-07-04T23:48:07.848Z,45.5
2018-07-04T23:50:05.631Z,45.6
2018-07-04T23:52:05.907Z,45.6
2018-07-04T23:54:08.143Z,45.5
2018-07-04T23:56:05.792Z,45.5
